createdAt,value
2023-03-20T03:01:58.997Z,6.33
2023-03-20T03:04:30.737Z,6.34
2023-03-20T03:07:04.008Z,6.35
2023-03-20T03:09:45.300Z,6.31
2023-03-20T03:12:20.917Z,6.29
2023-03-20T03:14:53.354Z,6.27
2023-03-20T03:17:25.118Z,6.28
2023-03-20T03:19:56.649Z,6.33
2023-03-20T03:22:26.689Z,6.29
2023-03-20T03:24:56.114Z,6.28
2023-03-20T03:27:32.533Z,6.28
2023-03-20T03:30:21.964Z,6.31
2023-03-20T03:33:11.330Z,6.36
2023-03-20T03:35:41.647Z,6.35
2023-03-20T03:38:30.246Z,6.36
2023-03-20T03:41:19.989Z,6.36
2023-03-20T03:44:09.928Z,6.35
2023-03-20T03:46:54.429Z,6.33
2023-03-20T03:49:26.945Z,6.26
2023-03-20T03:51:57.821Z,6.22
2023-03-20T03:54:32.874Z,6.24
2023-03-20T03:57:32.133Z,6.34
2023-03-20T04:00:02.676Z,6.39
2023-03-20T04:02:46.334Z,6.36
2023-03-20T04:05:16.778Z,6.32
2023-03-20T04:07:49.630Z,6.26
2023-03-20T04:10:19.560Z,6.19
2023-03-20T04:12:49.024Z,6.14
2023-03-20T04:15:18.428Z,6.12
2023-03-20T04:17:48.493Z,6.16
2023-03-20T04:20:19.097Z,6.16
2023-03-20T04:22:49.433Z,6.16
2023-03-20T04:25:23.919Z,6.13
2023-03-20T04:27:56.005Z,6.08
2023-03-20T04:30:54.713Z,6.11
2023-03-20T04:33:33.196Z,6.09
2023-03-20T04:36:33.700Z,6.06
2023-03-20T04:39:03.660Z,6.07
2023-03-20T04:41:32.216Z,6.10
2023-03-20T04:44:01.438Z,6.14
2023-03-20T04:46:30.616Z,6.18
2023-03-20T04:48:59.335Z,6.19
2023-03-20T04:51:31.151Z,6.22
2023-03-20T04:53:59.634Z,6.27
2023-03-20T04:56:28.669Z,6.34
2023-03-20T04:59:09.727Z,6.35
2023-03-20T05:01:38.185Z,6.34
2023-03-20T05:04:07.170Z,6.24
2023-03-20T05:06:36.178Z,6.16
2023-03-20T05:09:04.941Z,6.21
2023-03-20T05:11:35.155Z,6.22
2023-03-20T05:14:16.842Z,6.28
2023-03-20T05:17:06.735Z,6.36
2023-03-20T05:19:53.894Z,6.47
2023-03-20T05:22:45.223Z,6.56
2023-03-20T05:25:21.848Z,6.68
2023-03-20T05:28:09.160Z,6.80
2023-03-20T05:31:04.978Z,6.90
2023-03-20T05:33:52.147Z,6.95
2023-03-20T05:36:31.877Z,7.08
2023-03-20T05:39:39.634Z,7.12
2023-03-20T05:42:08.286Z,7.14
2023-03-20T05:44:48.151Z,7.15
2023-03-20T05:47:43.080Z,7.23
2023-03-20T05:50:39.366Z,7.32
2023-03-20T05:53:08.478Z,7.42
2023-03-20T05:56:17.268Z,7.42
2023-03-20T05:59:22.396Z,7.43
2023-03-20T06:02:11.933Z,7.52
2023-03-20T06:04:43.367Z,7.56
2023-03-20T06:07:14.892Z,7.59
2023-03-20T06:09:46.345Z,7.64
2023-03-20T06:12:15.098Z,7.76
2023-03-20T06:14:44.250Z,7.93
2023-03-20T06:17:13.337Z,8.07
2023-03-20T06:19:42.820Z,8.25
2023-03-20T06:22:11.712Z,8.43
2023-03-20T06:24:40.517Z,8.58
2023-03-20T06:27:10.306Z,8.68
2023-03-20T06:29:41.528Z,8.83
2023-03-20T06:32:18.372Z,9.01
2023-03-20T06:34:49.051Z,9.15
2023-03-20T06:37:18.346Z,9.16
2023-03-20T06:39:47.152Z,9.16
2023-03-20T06:42:17.766Z,9.19
2023-03-20T06:44:48.739Z,9.27
2023-03-20T06:47:28.675Z,9.39
2023-03-20T06:50:00.173Z,9.52
2023-03-20T06:52:30.116Z,9.63
2023-03-20T06:55:27.830Z,9.79
2023-03-20T06:57:56.258Z,9.89
2023-03-20T07:00:25.931Z,10.04
2023-03-20T07:02:56.121Z,10.16
2023-03-20T07:05:25.296Z,10.23
2023-03-20T07:07:54.019Z,10.33
2023-03-20T07:10:23.887Z,10.44
2023-03-20T07:12:54.509Z,10.54
2023-03-20T07:15:22.856Z,10.65
2023-03-20T07:17:53.779Z,10.77
2023-03-20T07:20:23.261Z,10.92
2023-03-20T07:22:52.429Z,11.03
2023-03-20T07:25:41.385Z,11.12
2023-03-20T07:28:10.913Z,11.22
2023-03-20T07:30:42.433Z,11.32
2023-03-20T07:33:12.452Z,11.39
2023-03-20T07:35:41.944Z,11.44
2023-03-20T07:38:11.710Z,11.47
2023-03-20T07:40:49.754Z,11.48
2023-03-20T07:43:18.131Z,11.54
2023-03-20T07:46:19.136Z,11.62
2023-03-20T07:48:47.238Z,11.69
2023-03-20T07:51:15.439Z,11.73
2023-03-20T07:53:44.117Z,11.84
2023-03-20T07:56:13.077Z,11.97
2023-03-20T07:58:42.276Z,12.09
2023-03-20T08:01:11.272Z,12.18
2023-03-20T08:03:40.216Z,12.28
2023-03-20T08:06:10.116Z,12.38
2023-03-20T08:08:38.835Z,12.49
2023-03-20T08:11:07.496Z,12.53
2023-03-20T08:13:36.727Z,12.61
2023-03-20T08:16:06.602Z,12.74
2023-03-20T08:18:35.204Z,12.82
2023-03-20T08:21:04.719Z,12.92
2023-03-20T08:23:34.634Z,12.99
2023-03-20T08:26:03.760Z,13.01
2023-03-20T08:28:46.640Z,13.09
2023-03-20T08:31:18.490Z,13.17
2023-03-20T08:33:47.996Z,13.25
2023-03-20T08:36:19.888Z,13.30
2023-03-20T08:38:49.765Z,13.36
2023-03-20T08:41:19.229Z,13.42
2023-03-20T08:43:48.578Z,13.50
2023-03-20T08:46:17.604Z,13.65
2023-03-20T08:48:45.900Z,13.78
2023-03-20T08:51:14.887Z,13.86
2023-03-20T08:53:43.892Z,13.91
2023-03-20T08:56:12.860Z,13.98
2023-03-20T08:58:41.862Z,14.05
2023-03-20T09:01:11.216Z,14.09
2023-03-20T09:03:40.744Z,14.13
2023-03-20T09:06:10.376Z,14.13
2023-03-20T09:08:39.407Z,14.13
2023-03-20T09:11:08.602Z,14.14
2023-03-20T09:13:37.583Z,14.20
2023-03-20T09:16:06.851Z,14.23
2023-03-20T09:18:36.425Z,14.28
2023-03-20T09:21:05.403Z,14.30
2023-03-20T09:23:34.576Z,14.33
2023-03-20T09:26:03.609Z,14.34
2023-03-20T09:28:33.215Z,14.40
2023-03-20T09:31:02.055Z,14.43
2023-03-20T09:33:31.387Z,14.48
2023-03-20T09:36:00.170Z,14.55
2023-03-20T09:38:29.178Z,14.63
2023-03-20T09:41:00.755Z,14.67
2023-03-20T09:43:33.275Z,14.61
2023-03-20T09:46:09.317Z,14.64
2023-03-20T09:48:42.024Z,14.68
2023-03-20T09:51:14.066Z,14.71
2023-03-20T09:53:44.518Z,14.72
2023-03-20T09:56:22.460Z,14.73
2023-03-20T09:59:02.876Z,14.74
2023-03-20T10:01:43.752Z,14.77
2023-03-20T10:04:13.394Z,14.74
2023-03-20T10:06:42.292Z,14.72
2023-03-20T10:09:25.419Z,14.73
2023-03-20T10:11:54.479Z,14.76
2023-03-20T10:14:38.732Z,14.78
2023-03-20T10:17:19.833Z,14.80
2023-03-20T10:20:10.763Z,14.79
2023-03-20T10:22:42.498Z,14.84
2023-03-20T10:25:44.538Z,14.89
2023-03-20T10:28:13.296Z,14.95
2023-03-20T10:31:01.788Z,14.99
2023-03-20T10:33:33.823Z,15.01
2023-03-20T10:36:25.730Z,15.02
2023-03-20T10:38:54.512Z,15.06
2023-03-20T10:41:26.563Z,15.09
2023-03-20T10:43:57.110Z,15.14
2023-03-20T10:46:34.226Z,15.22
2023-03-20T10:49:10.813Z,15.28
2023-03-20T10:51:47.470Z,15.34
2023-03-20T10:54:23.601Z,15.40
2023-03-20T10:56:56.227Z,15.47
2023-03-20T10:59:24.672Z,15.53
2023-03-20T11:01:53.604Z,15.58
2023-03-20T11:04:22.841Z,15.62
2023-03-20T11:07:03.588Z,15.68
2023-03-20T11:09:33.360Z,15.73
2023-03-20T11:12:03.578Z,15.80
2023-03-20T11:14:38.384Z,15.89
2023-03-20T11:17:07.623Z,15.96
2023-03-20T11:19:38.113Z,16.03
2023-03-20T11:22:23.693Z,16.06
2023-03-20T11:24:55.183Z,16.03
2023-03-20T11:27:28.724Z,15.95
2023-03-20T11:29:58.810Z,15.89
2023-03-20T11:32:41.728Z,15.82
2023-03-20T11:35:12.383Z,15.70
2023-03-20T11:37:45.134Z,15.60
2023-03-20T11:40:18.034Z,15.42
2023-03-20T11:42:56.301Z,15.23
2023-03-20T11:45:26.364Z,15.05
2023-03-20T11:47:56.439Z,14.95
2023-03-20T11:50:27.104Z,14.86
2023-03-20T11:52:56.270Z,14.73
2023-03-20T11:55:43.739Z,14.66
2023-03-20T11:58:17.097Z,14.59
2023-03-20T12:00:51.018Z,14.53
2023-03-20T12:03:39.019Z,14.52
2023-03-20T12:06:10.205Z,14.53
2023-03-20T12:08:40.080Z,14.50
2023-03-20T12:11:27.348Z,14.51
2023-03-20T12:13:59.435Z,14.58
2023-03-20T12:16:29.530Z,14.60
2023-03-20T12:19:03.554Z,14.65
2023-03-20T12:22:08.319Z,14.68
2023-03-20T12:24:56.198Z,14.73
2023-03-20T12:27:38.347Z,14.70
2023-03-20T12:30:10.943Z,14.65
2023-03-20T12:32:40.056Z,14.62
2023-03-20T12:35:16.769Z,14.57
2023-03-20T12:37:46.792Z,14.57
2023-03-20T12:40:17.557Z,14.59
2023-03-20T12:42:55.373Z,14.60
2023-03-20T12:45:27.023Z,14.58
2023-03-20T12:48:23.112Z,14.59
2023-03-20T12:51:01.344Z,14.63
2023-03-20T12:53:35.271Z,14.71
2023-03-20T12:56:32.219Z,14.75
2023-03-20T12:59:07.092Z,14.82
2023-03-20T13:01:49.249Z,14.86
2023-03-20T13:04:23.547Z,14.92
2023-03-20T13:07:05.130Z,15.00
2023-03-20T13:09:48.619Z,15.10
2023-03-20T13:12:30.441Z,15.17
2023-03-20T13:14:58.744Z,15.23
2023-03-20T13:17:46.374Z,15.29
2023-03-20T13:20:34.164Z,15.35
2023-03-20T13:23:02.605Z,15.38
2023-03-20T13:25:31.112Z,15.40
2023-03-20T13:28:07.191Z,15.43
2023-03-20T13:30:52.665Z,15.42
2023-03-20T13:33:33.475Z,15.45
2023-03-20T13:36:12.733Z,15.49
2023-03-20T13:38:43.554Z,15.54
2023-03-20T13:41:13.505Z,15.58
2023-03-20T13:43:47.661Z,15.63
2023-03-20T13:46:22.560Z,15.71
2023-03-20T13:48:53.252Z,15.72
2023-03-20T13:51:31.372Z,15.69
2023-03-20T13:54:16.592Z,15.67
2023-03-20T13:56:48.055Z,15.68
2023-03-20T13:59:29.861Z,15.64
2023-03-20T14:02:14.659Z,15.53
2023-03-20T14:04:44.193Z,15.44
2023-03-20T14:07:28.618Z,15.41
2023-03-20T14:09:57.597Z,15.41
2023-03-20T14:12:27.888Z,15.39
2023-03-20T14:14:57.559Z,15.38
2023-03-20T14:17:30.667Z,15.40
2023-03-20T14:20:11.809Z,15.38
2023-03-20T14:22:45.458Z,15.36
2023-03-20T14:25:19.043Z,15.30
2023-03-20T14:27:58.041Z,15.28
2023-03-20T14:30:32.617Z,15.26
2023-03-20T14:33:07.159Z,15.22
2023-03-20T14:35:40.620Z,15.20
2023-03-20T14:38:16.538Z,15.25
2023-03-20T14:41:08.238Z,15.33
2023-03-20T14:43:42.561Z,15.38
2023-03-20T14:46:29.219Z,15.35
2023-03-20T14:48:57.572Z,15.29
2023-03-20T14:51:32.438Z,15.20
2023-03-20T14:54:19.750Z,15.10
2023-03-20T14:56:52.662Z,15.01
2023-03-20T14:59:23.008Z,14.96
2023-03-20T15:01:57.042Z,14.94
2023-03-20T15:04:25.689Z,14.96
2023-03-20T15:06:58.923Z,14.99
2023-03-20T15:09:29.894Z,15.02
2023-03-20T15:12:04.724Z,15.07
2023-03-20T15:14:56.269Z,15.05
2023-03-20T15:17:34.829Z,15.01
2023-03-20T15:20:07.939Z,14.96
2023-03-20T15:22:48.012Z,14.91
2023-03-20T15:25:17.614Z,14.88
2023-03-20T15:27:46.572Z,14.84
2023-03-20T15:30:17.204Z,14.79
2023-03-20T15:32:47.359Z,14.72
2023-03-20T15:35:26.852Z,14.65
2023-03-20T15:37:57.412Z,14.59
2023-03-20T15:40:40.098Z,14.54
2023-03-20T15:43:19.206Z,14.47
2023-03-20T15:45:47.412Z,14.35
2023-03-20T15:48:17.801Z,14.25
2023-03-20T15:50:49.785Z,14.21
2023-03-20T15:53:27.776Z,14.15
2023-03-20T15:56:16.822Z,14.13
2023-03-20T15:58:52.730Z,14.07
2023-03-20T16:01:23.347Z,14.01
2023-03-20T16:03:53.201Z,13.91
2023-03-20T16:06:23.145Z,13.84
2023-03-20T16:09:02.294Z,13.81
2023-03-20T16:11:41.445Z,13.74
2023-03-20T16:14:13.013Z,13.74
2023-03-20T16:16:42.376Z,13.73
2023-03-20T16:19:13.012Z,13.71
2023-03-20T16:21:45.248Z,13.67
2023-03-20T16:24:26.078Z,13.66
2023-03-20T16:26:55.256Z,13.62
2023-03-20T16:29:25.434Z,13.57
2023-03-20T16:31:54.405Z,13.50
2023-03-20T16:34:26.383Z,13.44
2023-03-20T16:36:56.501Z,13.37
2023-03-20T16:39:27.533Z,13.31
2023-03-20T16:42:08.379Z,13.28
2023-03-20T16:44:39.907Z,13.21
2023-03-20T16:47:14.451Z,13.16
2023-03-20T16:49:50.980Z,13.13
2023-03-20T16:52:23.969Z,13.09
2023-03-20T16:54:52.616Z,13.00
2023-03-20T16:57:21.322Z,12.94
2023-03-20T16:59:58.252Z,12.93
2023-03-20T17:02:33.040Z,12.91
2023-03-20T17:05:03.294Z,12.90
2023-03-20T17:07:32.709Z,12.88
2023-03-20T17:10:12.708Z,12.86
2023-03-20T17:12:42.240Z,12.83
2023-03-20T17:15:24.687Z,12.85
2023-03-20T17:17:52.974Z,12.76
2023-03-20T17:20:25.859Z,12.52
2023-03-20T17:22:54.713Z,12.28
2023-03-20T17:25:23.705Z,12.08
2023-03-20T17:27:53.789Z,11.93
2023-03-20T17:30:25.465Z,11.84
2023-03-20T17:32:54.520Z,11.76
2023-03-20T17:35:23.441Z,11.71
2023-03-20T17:37:52.049Z,11.73
2023-03-20T17:40:22.344Z,11.71
2023-03-20T17:42:50.633Z,11.69
2023-03-20T17:45:20.860Z,11.71
2023-03-20T17:47:51.783Z,11.71
2023-03-20T17:50:24.737Z,11.72
2023-03-20T17:52:54.276Z,11.74
2023-03-20T17:55:23.245Z,11.72
2023-03-20T17:57:51.430Z,11.70
2023-03-20T18:00:21.881Z,11.64
2023-03-20T18:02:50.742Z,11.55
2023-03-20T18:05:20.128Z,11.49
2023-03-20T18:07:48.973Z,11.46
2023-03-20T18:10:26.272Z,11.41
2023-03-20T18:12:55.411Z,11.36
2023-03-20T18:15:23.811Z,11.28
2023-03-20T18:17:53.337Z,11.20
2023-03-20T18:20:26.900Z,11.15
2023-03-20T18:22:56.374Z,11.09
2023-03-20T18:25:26.267Z,11.05
2023-03-20T18:27:56.636Z,10.96
2023-03-20T18:30:27.090Z,10.86
2023-03-20T18:32:56.443Z,10.83
2023-03-20T18:35:25.429Z,10.78
2023-03-20T18:37:53.864Z,10.75
2023-03-20T18:40:30.144Z,10.74
2023-03-20T18:42:59.575Z,10.72
2023-03-20T18:45:29.490Z,10.71
2023-03-20T18:47:59.570Z,10.70
2023-03-20T18:50:32.155Z,10.70
2023-03-20T18:53:01.322Z,10.70
2023-03-20T18:55:31.990Z,10.72
2023-03-20T18:58:04.583Z,10.72
2023-03-20T19:00:40.335Z,10.71
2023-03-20T19:03:11.045Z,10.70
2023-03-20T19:05:39.599Z,10.66
2023-03-20T19:08:09.288Z,10.63
2023-03-20T19:10:39.593Z,10.64
2023-03-20T19:13:08.510Z,10.65
2023-03-20T19:15:39.258Z,10.64
2023-03-20T19:18:09.596Z,10.60
2023-03-20T19:20:38.578Z,10.58
2023-03-20T19:23:09.285Z,10.55
2023-03-20T19:25:39.325Z,10.58
2023-03-20T19:28:08.155Z,10.61
2023-03-20T19:30:40.338Z,10.57
2023-03-20T19:33:09.692Z,10.54
2023-03-20T19:35:58.765Z,10.52
2023-03-20T19:38:27.137Z,10.52
2023-03-20T19:40:56.355Z,10.52
2023-03-20T19:43:24.974Z,10.53
2023-03-20T19:45:58.347Z,10.47
2023-03-20T19:51:21.238Z,10.40
2023-03-20T19:53:51.090Z,10.39
2023-03-20T19:56:21.488Z,10.37
2023-03-20T19:58:51.223Z,10.35
2023-03-20T20:01:22.298Z,10.31
2023-03-20T20:03:54.090Z,10.30
2023-03-20T20:06:30.144Z,10.30
2023-03-20T20:09:01.820Z,10.29
2023-03-20T20:11:30.552Z,10.30
2023-03-20T20:14:08.706Z,10.33
2023-03-20T20:16:40.022Z,10.31
2023-03-20T20:19:08.883Z,10.34
2023-03-20T20:24:27.595Z,10.36
2023-03-20T20:27:15.365Z,10.34
2023-03-20T20:29:49.557Z,10.35
2023-03-20T20:32:19.270Z,10.37
2023-03-20T20:40:29.018Z,10.24
2023-03-20T20:43:01.423Z,10.28
2023-03-20T20:45:31.881Z,10.28
2023-03-20T20:48:01.809Z,10.28
2023-03-20T20:50:31.208Z,10.28
2023-03-20T20:52:59.842Z,10.27
2023-03-20T20:55:29.020Z,10.28
2023-03-20T20:57:57.474Z,10.30
2023-03-20T21:00:37.517Z,10.31
2023-03-20T21:03:14.653Z,10.33
2023-03-20T21:05:43.594Z,10.34
2023-03-20T21:08:16.808Z,10.36
2023-03-20T21:10:46.664Z,10.37
2023-03-20T21:13:16.345Z,10.41
2023-03-20T21:15:46.134Z,10.41
2023-03-20T21:18:15.403Z,10.42
2023-03-20T21:20:44.442Z,10.44
2023-03-20T21:23:13.530Z,10.42
2023-03-20T21:25:46.341Z,10.39
2023-03-20T21:28:17.087Z,10.39
2023-03-20T21:31:12.418Z,10.38
2023-03-20T21:33:36.932Z,10.33
2023-03-20T21:36:06.822Z,10.34
2023-03-20T21:41:25.185Z,10.35
2023-03-20T21:43:54.072Z,10.33
2023-03-20T21:55:38.527Z,10.28
2023-03-20T22:03:35.214Z,10.29
2023-03-20T22:09:45.555Z,10.25
2023-03-20T22:12:48.482Z,10.26
2023-03-20T22:21:06.306Z,10.18
2023-03-20T22:32:13.320Z,10.17
2023-03-20T22:34:54.381Z,10.21
2023-03-20T22:40:48.789Z,10.15
2023-03-20T22:43:07.066Z,10.14
2023-03-20T22:45:58.566Z,10.13
2023-03-20T22:48:33.445Z,10.06
2023-03-20T22:51:01.849Z,9.99
2023-03-20T22:53:32.454Z,9.88
2023-03-20T22:56:01.022Z,9.78
2023-03-20T22:58:29.453Z,9.72
2023-03-20T23:00:57.866Z,9.63
2023-03-20T23:03:40.361Z,9.58
2023-03-20T23:06:16.250Z,9.50
2023-03-20T23:08:52.071Z,9.38
2023-03-20T23:11:24.479Z,9.25
2023-03-20T23:13:52.876Z,9.17
2023-03-20T23:16:21.351Z,9.11
2023-03-20T23:18:49.869Z,9.05
2023-03-20T23:21:18.650Z,9.03
2023-03-20T23:23:47.098Z,9.04
2023-03-20T23:26:16.868Z,9.05
2023-03-20T23:28:46.827Z,9.07
2023-03-20T23:31:19.406Z,9.06
2023-03-20T23:33:49.389Z,9.02
2023-03-20T23:36:33.044Z,8.96
2023-03-20T23:39:05.337Z,8.89
2023-03-20T23:42:04.591Z,8.86
2023-03-20T23:44:23.153Z,8.83
2023-03-20T23:46:51.831Z,8.82
2023-03-20T23:49:20.438Z,8.79
2023-03-20T23:51:48.971Z,8.76
2023-03-20T23:54:17.281Z,8.73
2023-03-20T23:56:45.780Z,8.75
2023-03-20T23:59:21.879Z,8.77
